Time;durP1;ratioP1;P1;durP2;ratioP2;P2;SDS_P1;SDS_P2;PMS_P1;PMS_P2;Temp;Humidity;BMP_temperature;BMP_pressure;BME280_temperature;BME280_humidity;BME280_pressure;Samples;Min_cycle;Max_cycle;Signal;HPM_P1;HPM_P2
2024/02/21 00:00:43;;;;;;;10.70;5.30;;;;;;;-0.35;67.54;100347.36;80766;1295;3052281;-75
2024/02/21 00:03:10;;;;;;;12.00;5.20;;;;;;;-0.45;67.89;100345.82;82066;1298;3012865;-74
2024/02/21 00:05:36;;;;;;;9.30;4.80;;;;;;;-0.40;67.55;100348.05;82038;1298;3011021;-75
2024/02/21 00:08:04;;;;;;;9.50;4.40;;;;;;;-0.52;67.45;100346.52;80793;1295;3026594;-74
2024/02/21 00:10:32;;;;;;;11.50;4.90;;;;;;;-0.53;67.55;100341.88;82045;1295;3012473;-74
2024/02/21 00:12:59;;;;;;;12.00;4.90;;;;;;;-0.46;67.55;100341.70;81941;1295;3011197;-75
2024/02/21 00:15:27;;;;;;;16.00;5.40;;;;;;;-0.43;66.71;100341.35;80762;1295;3027701;-75
2024/02/21 00:17:54;;;;;;;10.00;5.30;;;;;;;-0.63;66.35;100334.83;82012;1297;3013174;-75
2024/02/21 00:20:22;;;;;;;10.90;5.00;;;;;;;-0.74;66.46;100334.83;82049;1295;3011170;-72
2024/02/21 00:22:50;;;;;;;11.90;5.40;;;;;;;-0.70;66.25;100331.92;80754;1295;3068895;-73
2024/02/21 00:25:16;;;;;;;10.80;4.60;;;;;;;-0.80;66.60;100330.88;82063;1295;3012530;-75
2024/02/21 00:27:43;;;;;;;12.20;5.60;;;;;;;-0.80;66.33;100330.02;82009;1295;3011099;-74
2024/02/21 00:30:11;;;;;;;9.30;4.70;;;;;;;-0.83;66.05;100329.16;80735;1295;3025385;-73
2024/02/21 00:32:38;;;;;;;9.90;5.50;;;;;;;-0.82;66.18;100321.94;82026;1300;3012440;-74
2024/02/21 00:35:05;;;;;;;10.60;5.00;;;;;;;-0.85;66.17;100322.80;82018;1295;3011306;-74
2024/02/21 00:37:33;;;;;;;10.00;5.30;;;;;;;-0.72;65.84;100321.92;80810;1295;3067644;-74
2024/02/21 00:40:01;;;;;;;9.60;5.80;;;;;;;-0.78;65.73;100319.19;82068;1295;3012395;-74
2024/02/21 00:42:29;;;;;;;8.80;4.60;;;;;;;-0.92;65.84;100320.56;82022;1295;3011482;-74
2024/02/21 00:44:58;;;;;;;15.10;5.10;;;;;;;-0.85;65.83;100321.25;80767;1295;3052618;-73
2024/02/21 00:47:24;;;;;;;13.20;5.10;;;;;;;-0.95;66.00;100314.71;81882;1303;3011487;-74
2024/02/21 00:49:52;;;;;;;12.80;5.90;;;;;;;-1.11;66.46;100315.73;82043;1295;3011183;-72
2024/02/21 00:52:20;;;;;;;9.40;5.10;;;;;;;-1.00;66.53;100310.25;80701;1295;3067546;-72
2024/02/21 00:54:49;;;;;;;8.90;4.80;;;;;;;-0.93;66.45;100308.36;81922;1297;3011219;-72
2024/02/21 00:57:15;;;;;;;12.60;5.40;;;;;;;-0.90;66.53;100304.39;82025;1295;3011369;-75
2024/02/21 00:59:43;;;;;;;11.40;5.60;;;;;;;-0.84;66.52;100306.10;80767;1295;3052898;-73
2024/02/21 01:02:09;;;;;;;10.10;5.40;;;;;;;-0.87;66.27;100305.09;82041;1295;3012906;-73
2024/02/21 01:04:36;;;;;;;13.50;5.50;;;;;;;-0.93;66.27;100305.26;82048;1295;3010969;-74
2024/02/21 01:07:04;;;;;;;9.20;5.40;;;;;;;-0.89;65.90;100307.50;80757;1295;3027868;-72
2024/02/21 01:09:30;;;;;;;12.00;5.90;;;;;;;-0.94;66.39;100309.04;82048;1295;3018327;-74
2024/02/21 01:11:57;;;;;;;11.50;6.10;;;;;;;-0.93;66.37;100301.98;82015;1295;3011229;-72
2024/02/21 01:14:25;;;;;;;16.20;6.30;;;;;;;-1.01;66.85;100303.89;80764;1295;3027081;-72
2024/02/21 01:16:51;;;;;;;14.40;6.20;;;;;;;-1.02;66.57;100307.15;82039;1295;3012890;-74
2024/02/21 01:19:18;;;;;;;16.00;7.40;;;;;;;-1.07;67.08;100308.20;82025;1295;3011614;-71
2024/02/21 01:21:46;;;;;;;11.50;5.30;;;;;;;-0.90;66.72;100302.16;80742;1295;3026832;-73
2024/02/21 01:24:14;;;;;;;12.40;6.00;;;;;;;-0.87;66.55;100301.98;82058;1295;3012908;-73
2024/02/21 01:26:40;;;;;;;13.20;6.10;;;;;;;-0.89;66.68;100299.06;82008;1295;3011646;-73
2024/02/21 01:29:08;;;;;;;12.00;6.00;;;;;;;-0.88;66.79;100301.64;80763;1295;3052285;-72
2024/02/21 01:31:35;;;;;;;12.60;6.00;;;;;;;-0.89;66.75;100299.91;82004;1300;3018111;-76
2024/02/21 01:34:02;;;;;;;15.30;6.10;;;;;;;-0.89;66.65;100301.65;82031;1300;3011637;-75
2024/02/21 01:36:30;;;;;;;10.20;5.30;;;;;;;-0.88;66.50;100295.27;80766;1295;3067682;-76
2024/02/21 01:38:57;;;;;;;10.60;5.50;;;;;;;-0.90;66.76;100293.73;82081;1295;3013030;-75
2024/02/21 01:41:24;;;;;;;12.80;6.10;;;;;;;-0.83;66.93;100294.93;82047;1294;3011399;-74
2024/02/21 01:43:52;;;;;;;22.50;6.40;;;;;;;-0.81;66.48;100293.55;80783;1295;3051186;-74
2024/02/21 01:46:19;;;;;;;16.00;7.10;;;;;;;-0.81;66.76;100293.05;82051;1295;3017933;-75
2024/02/21 01:48:46;;;;;;;12.70;6.30;;;;;;;-0.78;66.84;100295.27;82042;1295;3011490;-74
2024/02/21 01:51:14;;;;;;;13.90;7.00;;;;;;;-0.80;66.50;100290.63;80688;1295;3026659;-74
2024/02/21 01:53:44;;;;;;;11.10;6.00;;;;;;;-0.72;66.31;100287.01;82070;1295;3018812;-75
2024/02/21 01:56:12;;;;;;;12.90;6.60;;;;;;;-0.93;66.39;100288.57;80790;1295;3048730;-74
2024/02/21 01:58:40;;;;;;;12.90;6.80;;;;;;;-0.91;66.73;100290.64;82077;1295;3012473;-75
2024/02/21 02:01:06;;;;;;;13.50;6.00;;;;;;;-1.04;67.30;100284.62;82016;1295;3011349;-75
2024/02/21 02:03:34;;;;;;;10.50;5.80;;;;;;;-1.07;67.72;100282.90;80806;1295;3051043;-75
2024/02/21 02:06:01;;;;;;;14.00;5.70;;;;;;;-1.07;67.49;100284.63;82065;1295;3018012;-74
2024/02/21 02:08:28;;;;;;;16.80;6.00;;;;;;;-0.95;67.44;100283.23;81932;1297;3011461;-75
2024/02/21 02:10:56;;;;;;;12.20;6.00;;;;;;;-0.94;67.05;100283.59;80768;1295;3026517;-73
2024/02/21 02:13:23;;;;;;;12.10;6.40;;;;;;;-1.03;67.10;100285.30;82062;1295;3012550;-74
2024/02/21 02:15:51;;;;;;;14.70;6.40;;;;;;;-1.02;67.38;100287.55;82021;1295;3011174;-75
2024/02/21 02:18:19;;;;;;;11.20;5.50;;;;;;;-1.07;67.49;100287.55;80799;1295;3050051;-74
2024/02/21 02:20:46;;;;;;;11.00;5.70;;;;;;;-1.07;67.63;100285.31;81971;1298;3011398;-74
2024/02/21 02:23:25;;;;;;;13.10;5.80;;;;;;;-1.08;67.63;100289.45;81951;1295;3011396;-73
2024/02/21 02:25:55;;;;;;;12.50;5.50;;;;;;;-1.02;67.78;100288.75;80785;1295;3049295;-73
2024/02/21 02:28:24;;;;;;;15.40;5.80;;;;;;;-1.04;67.54;100294.25;81895;1295;3011403;-75
2024/02/21 02:30:53;;;;;;;10.80;5.70;;;;;;;-1.14;67.66;100292.53;80772;1295;3026475;-73
2024/02/21 02:33:20;;;;;;;14.20;6.20;;;;;;;-1.05;67.75;100296.14;81867;1297;3013149;-75
2024/02/21 02:35:49;;;;;;;13.50;6.00;;;;;;;-1.01;67.54;100297.86;81976;1299;3011170;-74
2024/02/21 02:38:19;;;;;;;14.20;6.10;;;;;;;-1.09;67.98;100300.63;80652;1296;3050984;-75
2024/02/21 02:40:48;;;;;;;13.30;6.30;;;;;;;-1.08;67.96;100303.88;82046;1295;3011181;-74
2024/02/21 02:43:16;;;;;;;13.40;6.20;;;;;;;-1.21;68.07;100297.86;80749;1295;3048273;-73
2024/02/21 02:45:43;;;;;;;15.30;6.90;;;;;;;-1.29;68.26;100303.35;82049;1295;3012645;-73
2024/02/21 02:48:09;;;;;;;17.00;7.00;;;;;;;-1.24;67.88;100301.45;82051;1295;3011549;-74
2024/02/21 02:50:40;;;;;;;21.90;8.10;;;;;;;-1.23;68.33;100300.45;80806;1295;3026087;-73
2024/02/21 02:53:07;;;;;;;23.10;8.70;;;;;;;-1.19;67.87;100297.67;82018;1295;3011306;-74
2024/02/21 02:55:35;;;;;;;22.80;8.80;;;;;;;-1.28;67.96;100298.88;80824;1295;3024968;-74
2024/02/21 02:58:02;;;;;;;25.30;8.90;;;;;;;-1.38;68.39;100301.63;82084;1295;3011389;-72
2024/02/21 03:00:29;;;;;;;23.00;9.40;;;;;;;-1.26;68.37;100299.05;81930;1295;3011252;-72
2024/02/21 03:02:57;;;;;;;23.60;8.90;;;;;;;-1.25;68.11;100299.58;80794;1295;3050474;-74
2024/02/21 03:05:24;;;;;;;24.30;8.40;;;;;;;-1.28;67.77;100300.08;82092;1295;3018679;-73
2024/02/21 03:07:50;;;;;;;22.10;8.20;;;;;;;-1.19;67.43;100298.73;82019;1295;3011412;-74
2024/02/21 03:10:18;;;;;;;20.40;8.20;;;;;;;-1.07;67.36;100296.84;80785;1295;3026061;-75
2024/02/21 03:12:45;;;;;;;24.70;8.50;;;;;;;-1.15;67.07;100294.42;82052;1295;3012499;-74
2024/02/21 03:15:11;;;;;;;19.50;8.20;;;;;;;-1.09;66.99;100292.19;82034;1295;3011432;-74
2024/02/21 03:17:40;;;;;;;19.10;7.90;;;;;;;-1.09;66.73;100294.09;80762;1295;3026552;-73
2024/02/21 03:20:10;;;;;;;16.70;6.50;;;;;;;-1.13;66.54;100293.21;81952;1298;3012754;-74
2024/02/21 03:22:38;;;;;;;15.80;6.80;;;;;;;-1.37;66.81;100290.10;80800;1295;3068755;-73
2024/02/21 03:25:06;;;;;;;20.30;7.70;;;;;;;-1.29;66.67;100291.14;82065;1295;3018662;-74
2024/02/21 03:27:32;;;;;;;18.50;6.90;;;;;;;-1.25;66.63;100292.70;82026;1295;3011366;-74
2024/02/21 03:30:00;;;;;;;15.80;6.50;;;;;;;-1.29;66.58;100286.51;80768;1295;3052087;-74
2024/02/21 03:32:28;;;;;;;18.70;7.10;;;;;;;-1.38;66.58;100291.48;82057;1295;3012589;-73
2024/02/21 03:34:54;;;;;;;16.60;7.40;;;;;;;-1.29;66.54;100288.91;82046;1301;3011167;-74
2024/02/21 03:37:22;;;;;;;15.00;7.00;;;;;;;-1.24;66.39;100290.29;80787;1295;3069557;-73
2024/02/21 03:39:52;;;;;;;15.10;7.10;;;;;;;-1.20;66.19;100292.52;82089;1295;3011118;-73
2024/02/21 03:42:21;;;;;;;9.90;5.90;;;;;;;-1.33;66.08;100285.30;81408;1295;3011222;-73
2024/02/21 03:44:48;;;;;;;12.70;6.30;;;;;;;-1.21;66.19;100282.89;82084;1295;3012553;-72
2024/02/21 03:47:14;;;;;;;12.10;5.50;;;;;;;-1.15;65.97;100284.98;82034;1295;3011262;-75
2024/02/21 03:49:44;;;;;;;15.70;5.80;;;;;;;-1.11;65.60;100286.35;80784;1295;3026376;-74
2024/02/21 03:52:10;;;;;;;20.00;6.40;;;;;;;-1.21;65.38;100290.63;82087;1300;3012547;-73
2024/02/21 03:54:37;;;;;;;12.10;6.10;;;;;;;-1.31;65.66;100286.84;82067;1295;3011218;-76
2024/02/21 03:57:06;;;;;;;11.20;6.60;;;;;;;-1.15;65.32;100288.05;80826;1295;3056970;-74
2024/02/21 03:59:33;;;;;;;13.60;5.80;;;;;;;-1.06;64.87;100289.44;82056;1295;3013159;-75
2024/02/21 04:02:00;;;;;;;12.00;4.90;;;;;;;-1.14;64.76;100291.67;82047;1295;3011425;-74
2024/02/21 04:04:28;;;;;;;12.10;4.10;;;;;;;-1.13;64.58;100291.84;80747;1295;3051821;-73
2024/02/21 04:06:54;;;;;;;7.40;4.40;;;;;;;-1.11;64.06;100291.33;81917;1298;3012983;-74
2024/02/21 04:09:21;;;;;;;10.70;4.50;;;;;;;-1.10;64.03;100284.11;82073;1295;3011369;-73
2024/02/21 04:11:48;;;;;;;7.60;4.50;;;;;;;-1.12;64.22;100287.20;80792;1295;3026127;-73
2024/02/21 04:14:15;;;;;;;14.00;4.80;;;;;;;-1.23;64.16;100285.81;82056;1295;3012445;-74
2024/02/21 04:16:42;;;;;;;6.70;4.30;;;;;;;-1.11;63.92;100283.42;82046;1295;3011108;-72
2024/02/21 04:19:10;;;;;;;12.60;4.60;;;;;;;-1.17;63.76;100287.70;80791;1295;3025777;-73
2024/02/21 04:21:38;;;;;;;9.10;4.90;;;;;;;-1.20;63.64;100283.06;82050;1295;3013443;-74
2024/02/21 04:24:05;;;;;;;7.10;4.10;;;;;;;-1.25;63.58;100284.45;81937;1298;3011370;-75
2024/02/21 04:26:33;;;;;;;5.60;3.60;;;;;;;-1.21;63.23;100285.30;80765;1295;3056349;-75
2024/02/21 04:29:00;;;;;;;9.80;4.30;;;;;;;-1.18;62.87;100286.67;82084;1295;3018728;-72
2024/02/21 04:32:10;;;;;;;6.90;4.40;;;;;;;-1.24;63.08;100288.73;80353;1303;3013661;-71
2024/02/21 04:34:36;;;;;;;7.80;4.90;;;;;;;-1.19;62.95;100288.40;79332;1299;3019230;-76
2024/02/21 04:37:04;;;;;;;7.80;4.30;;;;;;;-1.31;62.83;100289.95;79356;1304;3011344;-73
2024/02/21 04:39:31;;;;;;;6.80;4.20;;;;;;;-1.39;63.03;100291.81;78241;1305;3026325;-73
2024/02/21 04:41:58;;;;;;;6.80;4.10;;;;;;;-1.50;63.41;100295.23;79412;1303;3018460;-75
2024/02/21 04:44:25;;;;;;;11.30;4.40;;;;;;;-1.43;63.63;100296.80;79412;1301;3011551;-76
2024/02/21 04:46:53;;;;;;;7.90;4.60;;;;;;;-1.37;63.22;100291.99;78375;1300;3026853;-73
2024/02/21 04:49:19;;;;;;;8.00;4.50;;;;;;;-1.37;63.17;100281.85;79483;1299;3018795;-72
2024/02/21 04:51:46;;;;;;;9.90;4.50;;;;;;;-1.38;63.54;100285.63;79773;1298;3011788;-71
2024/02/21 04:54:14;;;;;;;8.80;4.80;;;;;;;-1.34;63.38;100296.98;78354;1296;3027860;-74
2024/02/21 04:56:40;;;;;;;9.00;4.40;;;;;;;-1.36;62.77;100299.21;79519;1298;3018689;-72
2024/02/21 04:59:07;;;;;;;8.70;4.70;;;;;;;-1.39;62.92;100297.83;79467;1298;3011523;-73
2024/02/21 05:01:35;;;;;;;11.50;4.70;;;;;;;-1.38;63.08;100296.64;78262;1299;3026800;-75
2024/02/21 05:04:02;;;;;;;16.70;4.60;;;;;;;-1.37;63.19;100299.04;79376;1299;3018539;-74
2024/02/21 05:06:29;;;;;;;7.00;4.30;;;;;;;-1.42;63.19;100299.21;79608;1299;3011790;-73
2024/02/21 05:08:58;;;;;;;8.60;5.30;;;;;;;-1.27;63.02;100306.45;78419;1295;3052143;-75
2024/02/21 05:11:26;;;;;;;10.30;4.90;;;;;;;-1.26;63.08;100315.90;79694;1295;3013059;-72
2024/02/21 05:13:53;;;;;;;11.30;5.60;;;;;;;-1.40;63.03;100318.64;79704;1296;3011528;-75
2024/02/21 05:16:20;;;;;;;9.30;5.50;;;;;;;-1.43;63.09;100315.87;78357;1295;3049789;-75
2024/02/21 05:18:47;;;;;;;9.80;5.50;;;;;;;-1.28;62.72;100314.17;79634;1296;3013161;-74
2024/02/21 05:21:13;;;;;;;10.90;5.80;;;;;;;-1.39;63.50;100318.80;79705;1300;3011951;-72
2024/02/21 05:23:41;;;;;;;17.30;6.00;;;;;;;-1.41;63.49;100312.44;78387;1298;3027942;-75
2024/02/21 05:26:08;;;;;;;17.50;7.20;;;;;;;-1.27;63.57;100319.17;79883;1295;3013307;-73
2024/02/21 05:28:35;;;;;;;13.90;6.60;;;;;;;-1.32;63.68;100319.67;79783;1295;3013061;-73
2024/02/21 05:31:03;;;;;;;10.70;5.80;;;;;;;-1.20;63.43;100322.10;78436;1298;3028276;-74
2024/02/21 05:33:30;;;;;;;19.80;6.70;;;;;;;-1.28;63.73;100323.30;79776;1295;3018466;-75
2024/02/21 05:35:56;;;;;;;17.20;6.40;;;;;;;-1.34;63.80;100323.62;79801;1299;3011463;-74
2024/02/21 05:38:24;;;;;;;15.60;6.80;;;;;;;-1.24;63.85;100327.25;78426;1296;3026390;-78
2024/02/21 05:40:51;;;;;;;18.80;7.00;;;;;;;-1.39;63.81;100334.10;79909;1297;3013743;-73
2024/02/21 05:43:17;;;;;;;17.50;7.10;;;;;;;-1.44;64.21;100331.34;79925;1293;3013791;-77
2024/02/21 05:45:46;;;;;;;15.50;6.80;;;;;;;-1.38;64.02;100333.23;78792;1298;3028640;-75
2024/02/21 05:48:12;;;;;;;17.30;7.10;;;;;;;-1.38;63.88;100328.26;79782;1295;3013107;-73
2024/02/21 05:50:39;;;;;;;20.80;8.20;;;;;;;-1.41;64.25;100336.50;79869;1293;3013538;-74
2024/02/21 05:53:08;;;;;;;23.90;7.50;;;;;;;-1.32;64.27;100332.92;78569;1298;3050726;-70
2024/02/21 05:55:34;;;;;;;26.10;8.20;;;;;;;-1.23;64.13;100337.91;80098;1296;3014996;-73
2024/02/21 05:58:02;;;;;;;24.90;9.40;;;;;;;-1.12;63.75;100339.48;79556;1294;3011640;-74
2024/02/21 06:00:30;;;;;;;17.00;7.70;;;;;;;-1.22;63.91;100339.45;78563;1297;3050144;-71
2024/02/21 06:02:56;;;;;;;25.40;8.40;;;;;;;-1.15;64.07;100334.99;79885;1295;3018943;-75
2024/02/21 06:05:23;;;;;;;24.80;8.40;;;;;;;-1.20;64.26;100333.45;79984;1295;3011609;-72
2024/02/21 06:07:51;;;;;;;30.90;10.10;;;;;;;-1.15;64.02;100332.08;78871;1293;3024860;-72
2024/02/21 06:10:17;;;;;;;24.30;8.30;;;;;;;-1.15;64.21;100332.41;79958;1292;3013246;-73
2024/02/21 06:12:44;;;;;;;24.40;7.60;;;;;;;-1.03;63.84;100338.10;79771;1292;3012119;-75
2024/02/21 06:15:12;;;;;;;25.40;8.30;;;;;;;-0.91;63.22;100332.77;78646;1295;3026512;-74
2024/02/21 06:17:39;;;;;;;19.80;6.80;;;;;;;-0.94;63.29;100325.73;79634;1294;3013117;-69
2024/02/21 06:20:06;;;;;;;22.90;8.50;;;;;;;-0.93;63.26;100320.91;79883;1294;3012021;-74
2024/02/21 06:22:34;;;;;;;21.10;8.10;;;;;;;-1.02;64.03;100318.32;78642;1298;3052823;-73
2024/02/21 06:25:02;;;;;;;19.40;7.40;;;;;;;-0.98;63.65;100305.77;79843;1295;3019317;-70
2024/02/21 06:27:28;;;;;;;24.00;7.70;;;;;;;-1.01;63.56;100297.17;79751;1292;3013271;-73
2024/02/21 06:29:56;;;;;;;24.30;7.30;;;;;;;-1.04;63.87;100303.89;78509;1292;3050309;-71
2024/02/21 06:32:23;;;;;;;15.40;6.80;;;;;;;-0.97;63.83;100304.40;80492;1298;3013067;-74
2024/02/21 06:34:49;;;;;;;42.80;14.50;;;;;;;-1.03;63.70;100308.52;79608;1298;3011566;-74
2024/02/21 06:37:19;;;;;;;23.30;10.70;;;;;;;-0.99;63.51;100310.77;78610;1296;3025731;-73
2024/02/21 06:39:45;;;;;;;18.10;8.30;;;;;;;-1.05;63.90;100309.39;79696;1296;3013162;-74
2024/02/21 06:42:14;;;;;;;26.50;7.20;;;;;;;-1.02;63.48;100318.50;79752;1292;3013591;-72
2024/02/21 06:44:41;;;;;;;18.30;8.30;;;;;;;-1.13;63.91;100318.32;78589;1292;3048355;-72
2024/02/21 06:47:08;;;;;;;22.90;7.50;;;;;;;-0.89;64.13;100308.52;79930;1297;3011737;-72
2024/02/21 06:49:36;;;;;;;16.40;6.80;;;;;;;-0.88;63.71;100303.19;79783;1294;3011693;-70
2024/02/21 06:52:06;;;;;;;15.80;6.60;;;;;;;-0.84;63.46;100305.95;78531;1293;3051416;-71
2024/02/21 06:54:32;;;;;;;13.50;6.40;;;;;;;-0.86;63.67;100303.71;79712;1293;3014943;-75
2024/02/21 06:56:59;;;;;;;16.60;7.30;;;;;;;-0.91;63.93;100306.29;79694;1293;3011695;-74
2024/02/21 06:59:27;;;;;;;15.20;6.70;;;;;;;-0.88;64.20;100302.51;78485;1297;3047720;-70
2024/02/21 07:01:55;;;;;;;15.30;6.60;;;;;;;-0.85;63.90;100303.71;79819;1295;3019284;-73
2024/02/21 07:04:22;;;;;;;19.00;7.60;;;;;;;-0.85;64.32;100303.20;79915;1298;3013468;-73
2024/02/21 07:06:50;;;;;;;19.40;7.90;;;;;;;-0.93;64.60;100303.54;78627;1298;3052710;-73
2024/02/21 07:09:17;;;;;;;16.30;7.40;;;;;;;-0.89;64.78;100305.95;79822;1295;3013104;-70
2024/02/21 07:11:44;;;;;;;18.80;7.20;;;;;;;-0.75;64.16;100304.21;79888;1292;3012196;-74
2024/02/21 07:14:13;;;;;;;18.20;7.60;;;;;;;-0.59;63.99;100296.11;78589;1294;3027726;-74
2024/02/21 07:16:40;;;;;;;15.90;7.60;;;;;;;-0.39;63.62;100296.58;79885;1293;3012343;-70
2024/02/21 07:19:07;;;;;;;14.30;7.20;;;;;;;-0.57;63.69;100297.48;79867;1293;3013206;-72
2024/02/21 07:21:37;;;;;;;20.30;7.60;;;;;;;-0.81;64.52;100297.70;78800;1295;3053568;-72
2024/02/21 07:24:04;;;;;;;14.30;7.20;;;;;;;-0.72;64.64;100290.80;79878;1295;3013659;-72
2024/02/21 07:26:33;;;;;;;15.40;6.70;;;;;;;-0.55;64.47;100282.34;79381;1298;3011594;-72
2024/02/21 07:29:00;;;;;;;30.00;8.30;;;;;;;-0.30;63.63;100289.66;79817;1293;3013366;-67
2024/02/21 07:31:27;;;;;;;21.70;7.20;;;;;;;-0.31;63.26;100294.15;79705;1298;3011492;-69
2024/02/21 07:33:54;;;;;;;15.40;6.70;;;;;;;-0.47;63.65;100294.36;78581;1298;3026017;-70
2024/02/21 07:36:39;;;;;;;8.20;5.30;;;;;;;-0.53;63.26;100296.61;79853;1298;3013920;-68
2024/02/21 07:39:07;;;;;;;9.70;5.40;;;;;;;-0.36;63.31;100291.76;78678;1298;3068216;-71
2024/02/21 07:41:35;;;;;;;9.20;5.40;;;;;;;-0.29;63.06;100292.77;79676;1293;3019792;-69
2024/02/21 07:44:03;;;;;;;12.10;6.40;;;;;;;-0.23;62.47;100296.54;79494;1292;3011734;-70
2024/02/21 07:46:31;;;;;;;10.20;6.10;;;;;;;-0.16;62.69;100286.88;78458;1298;3052285;-72
2024/02/21 07:48:58;;;;;;;12.90;5.80;;;;;;;-0.06;62.02;100283.90;79738;1298;3018824;-70
2024/02/21 07:51:27;;;;;;;9.70;5.40;;;;;;;0.08;61.46;100280.06;79768;1295;3013949;-72
2024/02/21 07:53:55;;;;;;;8.90;4.40;;;;;;;-0.05;61.82;100279.94;78705;1298;3068284;-71
2024/02/21 07:56:22;;;;;;;7.90;4.30;;;;;;;0.02;61.60;100274.06;79817;1292;3018554;-71
2024/02/21 07:58:49;;;;;;;13.50;4.80;;;;;;;0.08;61.10;100270.59;79738;1296;3011786;-71
2024/02/21 08:01:22;;;;;;;8.70;4.80;;;;;;;0.02;61.83;100269.40;78612;1293;3026700;-70
2024/02/21 08:03:49;;;;;;;12.30;4.50;;;;;;;0.30;61.22;100267.02;79760;1296;3011502;-68
2024/02/21 08:06:17;;;;;;;9.30;4.50;;;;;;;0.59;60.58;100256.66;78315;1299;3051066;-69
2024/02/21 08:08:44;;;;;;;7.80;4.90;;;;;;;0.76;60.17;100255.33;79821;1298;3013183;-67
2024/02/21 08:11:10;;;;;;;13.60;5.50;;;;;;;1.00;60.42;100252.89;79726;1294;3012246;-68
2024/02/21 08:13:38;;;;;;;10.60;5.40;;;;;;;1.09;59.97;100248.84;78458;1293;3056465;-67
2024/02/21 08:16:05;;;;;;;9.90;5.40;;;;;;;0.99;60.65;100249.61;79806;1298;3011551;-67
2024/02/21 08:18:36;;;;;;;16.70;6.40;;;;;;;1.22;59.66;100241.29;79813;1295;3013123;-69
2024/02/21 08:21:04;;;;;;;12.10;6.30;;;;;;;1.26;59.26;100246.27;78642;1297;3051856;-70
2024/02/21 08:23:30;;;;;;;11.90;5.10;;;;;;;1.22;59.21;100243.89;79540;1300;3014665;-70
2024/02/21 08:25:57;;;;;;;11.50;5.60;;;;;;;1.22;58.86;100246.99;79889;1295;3012837;-71
2024/02/21 08:28:25;;;;;;;15.30;6.80;;;;;;;1.38;58.31;100244.08;78501;1293;3026287;-73
2024/02/21 08:30:51;;;;;;;11.50;6.10;;;;;;;1.41;58.14;100241.45;79651;1295;3013304;-74
2024/02/21 08:33:18;;;;;;;17.90;7.10;;;;;;;1.49;58.05;100247.23;79985;1293;3011643;-73
2024/02/21 08:35:46;;;;;;;11.80;5.70;;;;;;;1.76;57.62;100249.00;78406;1301;3028462;-72
2024/02/21 08:38:13;;;;;;;9.30;4.90;;;;;;;1.49;57.85;100251.55;79797;1294;3013360;-73
2024/02/21 08:40:39;;;;;;;10.30;4.20;;;;;;;1.50;57.74;100254.98;79790;1295;3013519;-76
2024/02/21 08:43:07;;;;;;;12.50;6.90;;;;;;;1.45;58.15;100252.63;78681;1298;3026114;-72
2024/02/21 08:45:34;;;;;;;14.70;5.80;;;;;;;1.55;57.65;100259.09;80173;1293;3014034;-73
2024/02/21 08:48:00;;;;;;;11.10;5.20;;;;;;;1.65;57.99;100260.02;80060;1295;3011661;-70
2024/02/21 08:50:28;;;;;;;11.60;5.40;;;;;;;1.61;57.70;100259.52;78647;1297;3026767;-73
2024/02/21 08:52:55;;;;;;;12.10;5.70;;;;;;;1.77;57.53;100255.20;79781;1297;3012829;-69
2024/02/21 08:55:23;;;;;;;8.90;4.70;;;;;;;1.67;57.37;100254.45;79514;1295;3011366;-71
2024/02/21 08:57:51;;;;;;;10.40;5.10;;;;;;;1.55;57.43;100257.88;78690;1295;3056341;-72
2024/02/21 09:00:26;;;;;;;9.50;4.90;;;;;;;1.60;57.00;100257.30;79636;1293;3013270;-70
2024/02/21 09:02:58;;;;;;;7.70;4.70;;;;;;;1.81;56.42;100257.23;78404;1298;3050386;-71
2024/02/21 09:05:24;;;;;;;9.90;4.80;;;;;;;1.71;56.18;100254.76;79657;1295;3012907;-73
2024/02/21 09:07:53;;;;;;;8.30;4.60;;;;;;;1.42;56.61;100253.69;79534;1295;3012495;-73
2024/02/21 09:10:20;;;;;;;9.40;4.60;;;;;;;1.11;57.67;100256.08;79854;1295;3013752;-73
2024/02/21 09:12:47;;;;;;;11.60;5.00;;;;;;;1.06;58.47;100257.67;79883;1297;3011979;-75
2024/02/21 09:15:15;;;;;;;7.90;4.40;;;;;;;1.05;58.31;100253.52;78596;1298;3028939;-76
2024/02/21 09:17:42;;;;;;;7.90;4.70;;;;;;;1.18;58.16;100247.89;79944;1298;3012857;-73
2024/02/21 09:20:11;;;;;;;11.50;5.00;;;;;;;1.32;58.31;100254.84;79877;1295;3013654;-74
2024/02/21 09:22:40;;;;;;;7.90;4.60;;;;;;;1.23;58.12;100251.13;78512;1297;3051325;-71
2024/02/21 09:25:07;;;;;;;13.50;5.10;;;;;;;1.18;58.28;100256.17;79864;1298;3013131;-73
2024/02/21 09:27:34;;;;;;;9.20;4.80;;;;;;;1.31;58.26;100250.53;79938;1292;3011280;-70
2024/02/21 09:30:04;;;;;;;9.50;5.40;;;;;;;1.30;58.01;100251.40;78678;1298;3049588;-71
2024/02/21 09:32:32;;;;;;;11.00;5.70;;;;;;;1.38;58.46;100246.13;80115;1294;3012992;-72
2024/02/21 09:35:02;;;;;;;9.40;5.40;;;;;;;1.32;59.02;100247.06;79721;1297;3011644;-73
2024/02/21 09:37:29;;;;;;;14.30;6.00;;;;;;;1.29;59.71;100248.14;80255;1298;3013530;-70
2024/02/21 09:39:55;;;;;;;7.10;4.10;;;;;;;1.32;59.42;100245.51;80250;1293;3011415;-72
2024/02/21 09:42:31;;;;;;;8.80;4.50;;;;;;;1.37;59.49;100245.48;78903;1298;3051612;-72
2024/02/21 09:44:59;;;;;;;13.50;5.40;;;;;;;1.32;60.17;100245.86;78828;1292;3055269;-69
2024/02/21 09:47:33;;;;;;;10.90;6.10;;;;;;;1.36;60.13;100247.73;79983;1296;3013595;-74
2024/02/21 09:50:02;;;;;;;9.60;4.90;;;;;;;1.48;59.61;100241.89;78927;1298;3051086;-72
2024/02/21 09:52:28;;;;;;;8.40;5.20;;;;;;;1.56;59.61;100237.83;80335;1301;3013006;-75
2024/02/21 09:54:57;;;;;;;10.10;5.00;;;;;;;1.47;59.83;100239.14;79953;1301;3011489;-73
2024/02/21 09:57:25;;;;;;;12.30;5.00;;;;;;;1.36;60.19;100235.63;78896;1292;3050593;-75
2024/02/21 09:59:52;;;;;;;9.10;5.30;;;;;;;1.32;60.49;100236.35;79799;1298;3013882;-77
2024/02/21 10:02:19;;;;;;;8.30;4.80;;;;;;;1.37;60.90;100237.17;79511;1300;3013658;-75
2024/02/21 10:04:48;;;;;;;12.20;5.60;;;;;;;1.43;60.84;100233.30;78355;1296;3026651;-77
2024/02/21 10:07:15;;;;;;;18.20;7.50;;;;;;;1.39;61.39;100236.63;79813;1298;3014127;-73
2024/02/21 10:09:45;;;;;;;16.60;7.20;;;;;;;1.48;61.78;100234.47;79881;1296;3012864;-74
2024/02/21 10:12:13;;;;;;;11.30;5.50;;;;;;;1.41;61.82;100237.81;78554;1294;3051065;-74
2024/02/21 10:14:39;;;;;;;9.50;5.00;;;;;;;1.48;61.88;100239.13;79823;1298;3013554;-73
2024/02/21 10:17:09;;;;;;;9.70;5.40;;;;;;;1.50;61.97;100233.92;80046;1293;3011636;-75
2024/02/21 10:19:40;;;;;;;11.60;5.70;;;;;;;1.46;61.25;100232.59;78775;1293;3049244;-74
2024/02/21 10:22:09;;;;;;;10.20;5.60;;;;;;;1.41;61.32;100225.05;79832;1298;3014215;-74
2024/02/21 10:24:40;;;;;;;10.00;5.80;;;;;;;1.36;61.61;100232.02;79472;1295;3014026;-76
2024/02/21 10:27:08;;;;;;;10.90;7.00;;;;;;;1.29;62.28;100232.26;79851;1295;3013077;-77
2024/02/21 10:29:37;;;;;;;13.80;7.00;;;;;;;1.41;62.10;100237.30;79253;1298;3013499;-77
2024/02/21 10:32:08;;;;;;;10.10;5.50;;;;;;;1.31;62.15;100232.74;79866;1298;3013195;-78
2024/02/21 10:34:36;;;;;;;9.00;5.40;;;;;;;1.29;62.36;100235.88;78666;1292;3053762;-77
2024/02/21 10:37:04;;;;;;;11.70;6.60;;;;;;;1.25;62.63;100232.12;80008;1298;3013375;-75
2024/02/21 10:39:34;;;;;;;14.20;6.30;;;;;;;1.31;62.38;100233.95;79961;1298;3011488;-71
2024/02/21 10:42:06;;;;;;;14.50;6.20;;;;;;;1.14;63.16;100225.85;78490;1293;3068012;-73
2024/02/21 10:44:33;;;;;;;15.10;6.30;;;;;;;1.16;63.26;100224.79;80071;1297;3013336;-73
2024/02/21 10:47:02;;;;;;;10.80;5.90;;;;;;;1.21;63.40;100217.48;78739;1295;3055835;-75
2024/02/21 10:49:30;;;;;;;11.80;6.20;;;;;;;1.34;63.07;100223.92;79887;1298;3013308;-76
2024/02/21 10:52:19;;;;;;;14.40;6.50;;;;;;;1.31;63.02;100227.23;79869;1292;3011834;-76
2024/02/21 10:55:16;;;;;;;16.60;6.70;;;;;;;1.37;63.08;100224.40;78669;1298;3052317;-69
2024/02/21 10:57:44;;;;;;;11.00;6.40;;;;;;;1.37;63.50;100224.91;78492;1298;3051700;-74
2024/02/21 11:00:12;;;;;;;15.20;7.30;;;;;;;1.44;63.41;100221.21;79524;1296;3018985;-74
2024/02/21 11:02:40;;;;;;;12.80;7.00;;;;;;;1.60;63.22;100216.02;79673;1293;3011571;-71
2024/02/21 11:05:08;;;;;;;17.30;6.60;;;;;;;1.51;63.89;100218.20;78627;1295;3049983;-74
2024/02/21 11:07:36;;;;;;;13.70;6.60;;;;;;;1.40;64.47;100217.98;79839;1293;3014088;-72